Saint-Noel, Canada
Current Conditions -  °F | °C
As of 7:00 PM on Friday 19 Dec 2014 (Local Time) from CYYY Reporting Station
Clear Clear  
Wind Chill: 11°   Ceiling: Unl
Heat Index: 23°   Visibility: 30mi
Dew Point: 14°   Wind: 14mph
Humidity: 68%   Direction: 20°NNE
Pressure: 30.11"   Gusts: NA
Location:  48.58°N, 67.83°W
Report Text: CYYY 200000Z 02012KT 30SM SKC M05/M10 A3011 RMK SLP201
Loading
Personal Weather Stations






























Interactive Weather Map New forecast layout! Learn more

10-Day Weather Forecast

Advertisements
Track Severe Weather on mobile